createdAt,value
2022-08-31T00:00:10.911Z,67.40
2022-08-31T00:01:11.101Z,67.30
2022-08-31T00:02:11.315Z,67.60
2022-08-31T00:03:11.457Z,67.50
2022-08-31T00:04:11.616Z,67.50
2022-08-31T00:05:11.761Z,67.71
2022-08-31T00:06:11.941Z,67.71
2022-08-31T00:07:12.090Z,67.60
2022-08-31T00:08:12.251Z,67.60
2022-08-31T00:09:12.450Z,68.11
2022-08-31T00:10:12.601Z,68.01
2022-08-31T00:11:12.798Z,68.21
2022-08-31T00:12:12.950Z,68.11
2022-08-31T00:13:13.222Z,68.24
2022-08-31T00:14:13.578Z,68.04
2022-08-31T00:15:13.492Z,68.44
2022-08-31T00:16:13.732Z,68.54
2022-08-31T00:17:13.861Z,68.65
2022-08-31T00:18:14.055Z,68.44
2022-08-31T00:19:14.240Z,68.34
2022-08-31T00:20:32.782Z,68.54
2022-08-31T00:21:15.581Z,68.54
2022-08-31T00:22:14.761Z,68.74
2022-08-31T00:23:14.928Z,68.85
2022-08-31T00:24:15.102Z,68.85
2022-08-31T00:25:15.250Z,69.05
2022-08-31T00:26:15.432Z,69.15
2022-08-31T00:27:15.598Z,69.15
2022-08-31T00:28:15.810Z,69.15
2022-08-31T00:29:15.974Z,69.48
2022-08-31T00:30:16.131Z,69.38
2022-08-31T00:31:16.363Z,69.38
2022-08-31T00:32:16.491Z,69.59
2022-08-31T00:33:17.894Z,69.48
2022-08-31T00:34:16.852Z,69.48
2022-08-31T00:35:17.003Z,69.48
2022-08-31T00:36:17.191Z,69.59
2022-08-31T00:37:17.352Z,69.79
2022-08-31T00:38:17.551Z,69.89
2022-08-31T00:39:17.712Z,69.99
2022-08-31T00:40:17.936Z,69.99
2022-08-31T00:41:18.071Z,69.99
2022-08-31T00:42:18.274Z,69.99
2022-08-31T00:43:18.669Z,69.89
2022-08-31T00:44:18.611Z,69.99
2022-08-31T00:45:18.779Z,70.29
2022-08-31T00:46:18.993Z,70.49
2022-08-31T00:47:19.101Z,70.29
2022-08-31T00:48:19.303Z,70.29
2022-08-31T00:49:19.466Z,70.29
2022-08-31T00:50:19.651Z,70.09
2022-08-31T00:51:19.812Z,69.99
2022-08-31T00:52:20.002Z,69.89
2022-08-31T00:53:20.171Z,69.99
2022-08-31T00:54:20.331Z,69.89
2022-08-31T00:55:20.517Z,69.99
2022-08-31T00:56:20.712Z,70.09
2022-08-31T00:57:20.940Z,69.99
2022-08-31T00:58:22.059Z,70.09
2022-08-31T00:59:21.203Z,70.09
2022-08-31T01:00:21.361Z,70.09
2022-08-31T01:01:21.616Z,69.59
2022-08-31T01:02:21.747Z,69.89
2022-08-31T01:03:21.890Z,70.09
2022-08-31T01:04:22.052Z,69.99
2022-08-31T01:05:22.205Z,70.09
2022-08-31T01:06:22.414Z,70.19
2022-08-31T01:07:22.572Z,70.09
2022-08-31T01:08:30.844Z,69.99
2022-08-31T01:09:23.922Z,70.09
2022-08-31T01:10:23.101Z,70.22
2022-08-31T01:11:23.255Z,70.32
2022-08-31T01:12:23.451Z,70.42
2022-08-31T01:13:23.625Z,70.12
2022-08-31T01:14:23.774Z,70.53
2022-08-31T01:15:23.942Z,70.62
2022-08-31T01:16:24.162Z,70.53
2022-08-31T01:17:24.287Z,70.53
2022-08-31T01:18:24.451Z,70.73
2022-08-31T01:19:24.602Z,70.93
2022-08-31T01:20:24.793Z,71.03
2022-08-31T01:21:24.983Z,71.03
2022-08-31T01:22:25.174Z,71.03
2022-08-31T01:23:25.343Z,71.17
2022-08-31T01:24:25.502Z,71.47
2022-08-31T01:25:26.766Z,71.57
2022-08-31T01:26:26.842Z,71.06
2022-08-31T01:27:26.035Z,71.57
2022-08-31T01:28:26.202Z,71.67
2022-08-31T01:29:26.361Z,71.77
2022-08-31T01:30:26.529Z,71.67
2022-08-31T01:31:26.720Z,71.77
2022-08-31T01:32:26.880Z,71.87
2022-08-31T01:33:27.057Z,72.07
2022-08-31T01:34:27.201Z,72.07
2022-08-31T01:35:27.353Z,72.17
2022-08-31T01:36:27.549Z,72.27
2022-08-31T01:37:29.466Z,72.38
2022-08-31T01:38:27.913Z,72.58
2022-08-31T01:39:28.072Z,72.38
2022-08-31T01:40:28.309Z,72.17
2022-08-31T01:41:28.423Z,72.27
2022-08-31T01:42:33.173Z,72.41
2022-08-31T01:43:29.780Z,72.61
2022-08-31T01:44:28.955Z,72.61
2022-08-31T01:45:29.152Z,72.61
2022-08-31T01:46:29.318Z,72.61
2022-08-31T01:47:29.484Z,72.71
2022-08-31T01:48:29.662Z,72.91
2022-08-31T01:49:29.821Z,72.71
2022-08-31T01:50:29.983Z,72.71
2022-08-31T01:51:30.142Z,72.81
2022-08-31T01:52:30.310Z,73.02
2022-08-31T01:53:30.473Z,72.91
2022-08-31T01:54:30.637Z,73.11
2022-08-31T01:55:30.823Z,73.02
2022-08-31T01:56:30.983Z,73.11
2022-08-31T01:57:34.172Z,73.22
2022-08-31T01:58:31.342Z,73.42
2022-08-31T01:59:31.494Z,73.52
2022-08-31T02:00:31.733Z,73.42
2022-08-31T02:01:34.290Z,73.66
2022-08-31T02:02:32.096Z,73.86
2022-08-31T02:03:32.212Z,73.86
2022-08-31T02:04:32.364Z,73.96
2022-08-31T02:05:32.555Z,74.26
2022-08-31T02:06:32.735Z,73.96
2022-08-31T02:07:32.872Z,74.26
2022-08-31T02:08:33.084Z,74.06
2022-08-31T02:09:33.233Z,74.06
2022-08-31T02:10:33.433Z,74.26
2022-08-31T02:11:33.602Z,74.26
2022-08-31T02:12:33.762Z,74.06
2022-08-31T02:13:33.944Z,74.16
2022-08-31T02:14:34.102Z,74.37
2022-08-31T02:15:34.252Z,74.37
2022-08-31T02:16:35.509Z,74.46
2022-08-31T02:17:34.632Z,74.37
2022-08-31T02:18:34.794Z,74.46
2022-08-31T02:19:34.943Z,74.57
2022-08-31T02:20:35.147Z,74.57
2022-08-31T02:21:36.753Z,74.87
2022-08-31T02:22:35.483Z,74.87
2022-08-31T02:23:35.645Z,74.57
2022-08-31T02:24:35.852Z,74.66
2022-08-31T02:25:36.002Z,74.77
2022-08-31T02:26:36.223Z,75.01
2022-08-31T02:27:36.383Z,75.17
2022-08-31T02:28:36.545Z,75.17
2022-08-31T02:29:36.703Z,75.07
2022-08-31T02:30:36.893Z,75.31
2022-08-31T02:31:37.105Z,75.17
2022-08-31T02:32:37.242Z,75.27
2022-08-31T02:33:37.393Z,75.37
2022-08-31T02:34:37.586Z,75.07
2022-08-31T02:35:37.743Z,75.48
2022-08-31T02:36:37.903Z,75.37
2022-08-31T02:37:38.073Z,75.17
2022-08-31T02:38:38.233Z,75.07
2022-08-31T02:39:38.382Z,75.27
2022-08-31T02:40:38.626Z,75.37
2022-08-31T02:41:38.732Z,75.57
2022-08-31T02:42:40.849Z,75.44
2022-08-31T02:43:40.096Z,74.93
2022-08-31T02:44:39.281Z,75.13
2022-08-31T02:45:39.433Z,74.73
2022-08-31T02:46:39.691Z,74.84
2022-08-31T02:47:39.823Z,74.84
2022-08-31T02:48:39.985Z,74.84
2022-08-31T02:49:40.144Z,74.73
2022-08-31T02:50:40.378Z,74.84
2022-08-31T02:51:40.501Z,74.49
2022-08-31T02:52:40.713Z,74.80
2022-08-31T02:53:40.869Z,74.40
2022-08-31T02:54:41.054Z,74.40
2022-08-31T02:55:41.213Z,74.19
2022-08-31T02:56:41.373Z,74.29
2022-08-31T02:57:41.554Z,74.19
2022-08-31T02:58:41.723Z,73.89
2022-08-31T02:59:41.874Z,73.85
2022-08-31T03:00:42.081Z,73.35
2022-08-31T03:01:42.328Z,73.85
2022-08-31T03:02:42.464Z,73.55
2022-08-31T03:03:43.934Z,73.35
2022-08-31T03:04:42.753Z,73.05
2022-08-31T03:05:42.903Z,72.95
2022-08-31T03:06:43.064Z,73.15
2022-08-31T03:07:43.233Z,72.95
2022-08-31T03:08:43.404Z,72.64
2022-08-31T03:09:43.563Z,72.95
2022-08-31T03:10:43.757Z,72.75
2022-08-31T03:11:43.925Z,72.64
2022-08-31T03:12:44.084Z,72.64
2022-08-31T03:13:44.251Z,72.75
2022-08-31T03:14:44.409Z,72.75
2022-08-31T03:15:44.732Z,72.64
2022-08-31T03:16:44.753Z,72.75
2022-08-31T03:17:44.907Z,72.75
2022-08-31T03:18:45.102Z,72.95
2022-08-31T03:19:45.253Z,73.15
2022-08-31T03:20:45.447Z,73.15
2022-08-31T03:21:45.614Z,73.05
2022-08-31T03:22:45.937Z,72.75
2022-08-31T03:23:45.966Z,72.95
2022-08-31T03:24:46.125Z,72.95
2022-08-31T03:25:46.284Z,72.95
2022-08-31T03:26:46.462Z,72.85
2022-08-31T03:27:46.613Z,72.85
2022-08-31T03:28:46.803Z,72.85
2022-08-31T03:29:46.973Z,72.95
2022-08-31T03:30:47.176Z,72.98
2022-08-31T03:31:47.315Z,73.18
2022-08-31T03:32:47.476Z,73.28
2022-08-31T03:33:47.634Z,73.28
2022-08-31T03:34:47.845Z,73.28
2022-08-31T03:35:48.008Z,73.18
2022-08-31T03:36:48.186Z,73.58
2022-08-31T03:37:48.346Z,73.69
2022-08-31T03:38:48.535Z,73.49
2022-08-31T03:39:48.724Z,74.09
2022-08-31T03:40:48.954Z,73.89
2022-08-31T03:41:49.084Z,74.09
2022-08-31T03:42:49.246Z,73.79
2022-08-31T03:43:49.394Z,73.69
2022-08-31T03:44:49.604Z,73.49
2022-08-31T03:45:49.804Z,73.89
2022-08-31T03:46:49.995Z,73.79
2022-08-31T03:47:50.132Z,73.99
2022-08-31T03:48:50.324Z,73.99
2022-08-31T03:49:50.484Z,74.43
2022-08-31T03:50:50.663Z,74.43
2022-08-31T03:51:50.822Z,74.43
2022-08-31T03:52:50.984Z,74.63
2022-08-31T03:53:51.154Z,74.53
2022-08-31T03:54:51.370Z,74.73
2022-08-31T03:55:51.533Z,74.63
2022-08-31T03:56:51.718Z,75.04
2022-08-31T03:57:51.882Z,74.73
2022-08-31T03:58:52.056Z,75.04
2022-08-31T03:59:52.234Z,75.04
2022-08-31T04:00:52.470Z,75.04
2022-08-31T04:01:52.645Z,75.04
2022-08-31T04:02:52.890Z,75.13
2022-08-31T04:03:52.924Z,75.34
2022-08-31T04:04:53.104Z,75.13
2022-08-31T04:05:53.304Z,75.24
2022-08-31T04:06:53.474Z,75.34
2022-08-31T04:07:53.656Z,75.44
2022-08-31T04:08:53.834Z,75.44
2022-08-31T04:09:54.017Z,75.34
2022-08-31T04:10:54.185Z,75.54
2022-08-31T04:11:54.356Z,75.34
2022-08-31T04:12:54.544Z,75.24
2022-08-31T04:13:54.721Z,75.13
2022-08-31T04:14:54.906Z,75.04
2022-08-31T04:15:55.145Z,75.04
2022-08-31T04:16:55.285Z,75.13
2022-08-31T04:17:57.081Z,75.04
2022-08-31T04:18:55.605Z,74.93
2022-08-31T04:19:55.803Z,75.04
2022-08-31T04:20:56.091Z,75.04
2022-08-31T04:21:56.123Z,75.04
2022-08-31T04:22:56.314Z,75.04
2022-08-31T04:23:56.465Z,75.04
2022-08-31T04:24:56.655Z,75.13
2022-08-31T04:25:56.856Z,74.90
2022-08-31T04:26:57.035Z,74.90
2022-08-31T04:27:58.078Z,74.80
2022-08-31T04:28:57.374Z,74.60
2022-08-31T04:29:57.562Z,74.69
2022-08-31T04:30:57.785Z,74.49
2022-08-31T04:31:57.895Z,74.29
2022-08-31T04:32:58.073Z,74.29
2022-08-31T04:33:58.259Z,74.19
2022-08-31T04:34:58.434Z,74.60
2022-08-31T04:35:58.605Z,74.26
2022-08-31T04:36:58.754Z,74.46
2022-08-31T04:37:58.934Z,74.36
2022-08-31T04:38:59.105Z,74.16
2022-08-31T04:39:59.441Z,74.05
2022-08-31T04:40:59.589Z,73.96
2022-08-31T04:41:59.614Z,73.85
2022-08-31T04:42:59.812Z,73.92
2022-08-31T04:43:59.965Z,73.52
2022-08-31T04:45:00.151Z,73.72
2022-08-31T04:46:00.364Z,73.72
2022-08-31T04:47:00.475Z,73.62
2022-08-31T04:48:00.635Z,73.52
2022-08-31T04:49:00.825Z,73.62
2022-08-31T04:50:00.996Z,73.52
2022-08-31T04:51:01.196Z,73.42
2022-08-31T04:52:01.376Z,73.11
2022-08-31T04:53:03.675Z,73.01
2022-08-31T04:54:01.713Z,72.91
2022-08-31T04:55:01.889Z,72.81
2022-08-31T04:56:02.158Z,72.81
2022-08-31T04:57:02.227Z,72.71
2022-08-31T04:58:02.418Z,72.81
2022-08-31T04:59:02.575Z,72.61
2022-08-31T05:00:02.756Z,72.47
2022-08-31T05:01:02.980Z,72.47
2022-08-31T05:02:03.178Z,72.38
2022-08-31T05:03:03.293Z,72.27
2022-08-31T05:04:03.431Z,71.97
2022-08-31T05:05:03.595Z,71.94
2022-08-31T05:06:03.777Z,71.73
2022-08-31T05:07:03.916Z,71.64
2022-08-31T05:08:04.096Z,71.44
2022-08-31T05:09:04.277Z,71.44
2022-08-31T05:10:04.457Z,71.30
2022-08-31T05:11:04.656Z,71.10
2022-08-31T05:12:04.814Z,70.46
2022-08-31T05:13:04.986Z,70.16
2022-08-31T05:14:05.166Z,69.82
2022-08-31T05:15:05.348Z,69.18
2022-08-31T05:16:05.625Z,68.68
2022-08-31T05:17:05.679Z,68.45
2022-08-31T05:18:05.856Z,67.51
2022-08-31T05:19:06.018Z,67.48
2022-08-31T05:20:06.187Z,66.44
2022-08-31T05:21:06.368Z,65.21
2022-08-31T05:22:06.516Z,64.48
2022-08-31T05:23:06.696Z,63.75
2022-08-31T05:24:06.875Z,63.34
2022-08-31T05:25:07.072Z,63.64
2022-08-31T05:26:07.257Z,63.57
2022-08-31T05:27:07.426Z,64.48
2022-08-31T05:28:07.607Z,64.51
2022-08-31T05:29:07.789Z,64.21
2022-08-31T05:30:07.987Z,64.40
2022-08-31T05:31:08.208Z,64.84
2022-08-31T05:32:08.347Z,65.34
2022-08-31T05:33:08.527Z,65.24
2022-08-31T05:34:08.707Z,65.77
2022-08-31T05:35:08.888Z,65.97
2022-08-31T05:36:09.076Z,66.17
2022-08-31T05:37:09.237Z,65.88
2022-08-31T05:38:09.422Z,66.17
2022-08-31T05:39:09.597Z,66.28
2022-08-31T05:40:09.833Z,66.20
2022-08-31T05:41:09.958Z,66.51
2022-08-31T05:42:10.106Z,66.51
2022-08-31T05:43:10.277Z,66.81
2022-08-31T05:44:10.477Z,66.71
2022-08-31T05:45:10.617Z,66.61
2022-08-31T05:46:10.918Z,66.74
2022-08-31T05:47:10.997Z,66.84
2022-08-31T05:48:11.157Z,67.04
2022-08-31T05:49:11.559Z,67.04
2022-08-31T05:50:11.508Z,67.24
2022-08-31T05:51:11.711Z,66.84
2022-08-31T05:52:11.848Z,67.68
2022-08-31T05:53:12.156Z,68.18
2022-08-31T05:54:12.188Z,68.18
2022-08-31T05:55:12.358Z,67.38
2022-08-31T05:56:12.556Z,67.88
2022-08-31T05:57:12.698Z,68.18
2022-08-31T05:58:12.879Z,67.58
2022-08-31T05:59:13.059Z,67.88
2022-08-31T06:00:13.238Z,68.28
2022-08-31T06:01:13.455Z,68.59
2022-08-31T06:02:13.627Z,68.08
2022-08-31T06:03:13.796Z,68.48
2022-08-31T06:04:13.948Z,68.08
2022-08-31T06:05:14.201Z,68.08
2022-08-31T06:06:14.346Z,67.68
2022-08-31T06:07:14.488Z,67.38
2022-08-31T06:08:15.402Z,67.58
2022-08-31T06:09:14.830Z,67.65
2022-08-31T06:10:15.030Z,67.85
2022-08-31T06:11:15.208Z,68.15
2022-08-31T06:12:15.357Z,68.15
2022-08-31T06:13:15.548Z,67.55
2022-08-31T06:14:15.700Z,67.74
2022-08-31T06:15:15.889Z,67.11
2022-08-31T06:16:16.150Z,67.51
2022-08-31T06:17:16.237Z,67.51
2022-08-31T06:18:16.419Z,66.81
2022-08-31T06:19:16.602Z,66.38
2022-08-31T06:20:17.875Z,66.28
2022-08-31T06:21:16.969Z,66.17
2022-08-31T06:22:17.129Z,66.58
2022-08-31T06:23:17.343Z,67.48
2022-08-31T06:24:17.467Z,66.78
2022-08-31T06:25:17.649Z,66.38
2022-08-31T06:26:17.840Z,66.58
2022-08-31T06:27:18.005Z,66.47
2022-08-31T06:28:18.166Z,65.97
2022-08-31T06:29:18.340Z,67.08
2022-08-31T06:30:18.528Z,67.58
2022-08-31T06:31:18.737Z,65.57
2022-08-31T06:32:18.860Z,66.28
2022-08-31T06:33:19.206Z,65.88
2022-08-31T06:34:19.210Z,66.78
2022-08-31T06:35:19.391Z,65.97
2022-08-31T06:36:19.580Z,66.61
2022-08-31T06:37:19.740Z,67.58
2022-08-31T06:38:19.920Z,66.98
2022-08-31T06:39:20.125Z,66.98
2022-08-31T06:40:20.303Z,67.08
2022-08-31T06:41:20.450Z,66.38
2022-08-31T06:42:20.630Z,66.67
2022-08-31T06:43:20.918Z,66.58
2022-08-31T06:44:20.983Z,66.47
2022-08-31T06:45:21.200Z,66.08
2022-08-31T06:46:21.406Z,64.97
2022-08-31T06:47:24.156Z,66.28
2022-08-31T06:48:21.700Z,66.55
2022-08-31T06:49:21.843Z,65.64
2022-08-31T06:50:22.039Z,66.75
2022-08-31T06:51:22.180Z,66.44
2022-08-31T06:52:22.380Z,65.54
2022-08-31T06:53:22.555Z,64.40
2022-08-31T06:54:30.728Z,64.21
2022-08-31T06:55:23.861Z,63.37
2022-08-31T06:56:23.021Z,63.87
2022-08-31T06:57:23.206Z,63.47
2022-08-31T06:58:23.381Z,63.67
2022-08-31T06:59:28.247Z,64.28
2022-08-31T07:00:24.821Z,64.37
2022-08-31T07:01:35.391Z,64.07
2022-08-31T07:02:25.166Z,64.34
2022-08-31T07:03:24.276Z,62.94
2022-08-31T07:04:24.435Z,63.04
2022-08-31T07:05:24.980Z,63.92
2022-08-31T07:06:24.761Z,62.28
2022-08-31T07:07:24.931Z,61.78
2022-08-31T07:08:25.113Z,61.38
2022-08-31T07:09:25.291Z,61.28
2022-08-31T07:10:25.492Z,61.18
2022-08-31T07:11:25.660Z,61.75
2022-08-31T07:12:25.832Z,61.25
2022-08-31T07:13:26.022Z,61.45
2022-08-31T07:14:26.172Z,60.95
2022-08-31T07:15:26.343Z,60.72
2022-08-31T07:16:26.551Z,60.32
2022-08-31T07:17:26.652Z,58.89
2022-08-31T07:18:26.851Z,58.49
2022-08-31T07:19:27.011Z,58.80
2022-08-31T07:20:27.213Z,59.69
2022-08-31T07:21:27.376Z,58.67
2022-08-31T07:22:27.580Z,59.17
2022-08-31T07:23:27.763Z,58.64
2022-08-31T07:24:27.936Z,58.64
2022-08-31T07:25:28.151Z,57.64
2022-08-31T07:26:28.273Z,57.74
2022-08-31T07:27:28.453Z,55.84
2022-08-31T07:28:28.635Z,56.44
2022-08-31T07:29:28.813Z,56.31
2022-08-31T07:30:33.223Z,56.61
2022-08-31T07:31:29.166Z,55.71
2022-08-31T07:32:29.344Z,56.01
2022-08-31T07:33:29.523Z,54.41
2022-08-31T07:34:29.705Z,53.69
2022-08-31T07:35:29.903Z,53.69
2022-08-31T07:36:30.044Z,53.89
2022-08-31T07:37:30.215Z,54.19
2022-08-31T07:38:30.405Z,54.66
2022-08-31T07:39:30.574Z,52.67
2022-08-31T07:40:30.810Z,53.14
2022-08-31T07:41:30.934Z,52.84
2022-08-31T07:42:31.077Z,52.42
2022-08-31T07:43:31.256Z,51.82
2022-08-31T07:44:31.415Z,51.10
2022-08-31T07:45:35.612Z,50.75
2022-08-31T07:46:32.797Z,48.61
2022-08-31T07:47:31.933Z,47.63
2022-08-31T07:48:32.086Z,44.89
2022-08-31T07:49:32.266Z,44.31
2022-08-31T07:50:32.474Z,43.35
2022-08-31T07:51:32.636Z,42.20
2022-08-31T07:52:32.827Z,40.96
2022-08-31T07:53:32.996Z,38.68
2022-08-31T07:54:33.178Z,37.76
2022-08-31T07:55:33.358Z,35.57
2022-08-31T07:56:35.008Z,35.66
2022-08-31T07:57:33.697Z,34.47
2022-08-31T07:58:33.888Z,35.24
2022-08-31T07:59:34.057Z,35.44
2022-08-31T08:00:34.258Z,34.05
2022-08-31T08:01:36.078Z,33.34
2022-08-31T08:02:34.690Z,33.72
2022-08-31T08:03:34.789Z,33.53
2022-08-31T08:04:35.003Z,33.70
2022-08-31T08:05:35.512Z,33.69
2022-08-31T08:06:35.316Z,34.57
2022-08-31T08:07:35.487Z,35.93
2022-08-31T08:08:35.688Z,33.95
2022-08-31T08:09:35.850Z,33.07
2022-08-31T08:10:36.057Z,33.05
2022-08-31T08:11:36.211Z,34.01
2022-08-31T08:12:36.390Z,31.96
2022-08-31T08:13:36.541Z,31.85
2022-08-31T08:14:36.721Z,34.09
2022-08-31T08:15:36.902Z,31.93
2022-08-31T08:16:37.118Z,31.33
2022-08-31T08:17:37.254Z,30.94
2022-08-31T08:18:37.442Z,30.37
2022-08-31T08:19:37.623Z,31.84
2022-08-31T08:20:39.018Z,30.86
2022-08-31T08:21:37.952Z,32.13
2022-08-31T08:22:51.438Z,31.15
2022-08-31T08:23:39.365Z,32.23
2022-08-31T08:24:38.484Z,31.23
2022-08-31T08:25:38.677Z,30.84
2022-08-31T08:26:38.854Z,31.33
2022-08-31T08:27:39.026Z,30.83
2022-08-31T08:28:40.893Z,31.88
2022-08-31T08:29:39.374Z,29.82
2022-08-31T08:30:39.573Z,29.33
2022-08-31T08:31:39.793Z,28.55
2022-08-31T08:32:39.923Z,29.82
2022-08-31T08:33:40.146Z,29.72
2022-08-31T08:34:40.299Z,28.64
2022-08-31T08:35:40.466Z,29.69
2022-08-31T08:36:40.620Z,28.23
2022-08-31T08:37:57.249Z,29.78
2022-08-31T08:38:42.057Z,28.22
2022-08-31T08:39:41.147Z,29.68
2022-08-31T08:40:41.438Z,28.50
2022-08-31T08:41:41.507Z,26.93
2022-08-31T08:42:41.683Z,27.12
2022-08-31T08:43:43.733Z,28.68
2022-08-31T08:44:42.036Z,27.90
2022-08-31T08:45:42.290Z,27.69
2022-08-31T08:46:42.459Z,28.65
2022-08-31T08:47:42.578Z,27.19
2022-08-31T08:48:42.729Z,27.76
2022-08-31T08:49:42.920Z,29.04
2022-08-31T08:50:43.150Z,26.15
2022-08-31T08:51:43.289Z,28.03
2022-08-31T08:52:43.475Z,27.54
2022-08-31T08:53:43.640Z,28.42
2022-08-31T08:54:43.835Z,27.44
2022-08-31T08:55:44.027Z,26.47
2022-08-31T08:56:44.183Z,26.69
2022-08-31T08:57:44.355Z,27.78
2022-08-31T08:58:44.531Z,27.69
2022-08-31T08:59:44.701Z,27.12
2022-08-31T09:00:44.932Z,27.50
2022-08-31T09:01:45.094Z,27.79
2022-08-31T09:02:45.327Z,28.18
2022-08-31T09:03:45.423Z,29.04
2022-08-31T09:04:45.603Z,28.34
2022-08-31T09:05:45.795Z,27.94
2022-08-31T09:06:47.644Z,27.55
2022-08-31T09:07:46.124Z,28.51
2022-08-31T09:08:46.295Z,27.22
2022-08-31T09:09:46.455Z,26.06
2022-08-31T09:10:46.646Z,26.76
2022-08-31T09:11:46.824Z,27.37
2022-08-31T09:12:46.997Z,27.95
2022-08-31T09:13:47.185Z,27.06
2022-08-31T09:14:47.340Z,27.23
2022-08-31T09:15:47.545Z,25.47
2022-08-31T09:16:47.698Z,25.47
2022-08-31T09:17:47.886Z,26.73
2022-08-31T09:18:48.057Z,26.82
2022-08-31T09:19:48.238Z,25.85
2022-08-31T09:20:48.417Z,25.64
2022-08-31T09:21:48.588Z,26.22
2022-08-31T09:22:48.767Z,26.25
2022-08-31T09:23:48.948Z,25.86
2022-08-31T09:24:52.082Z,25.71
2022-08-31T09:25:49.311Z,26.72
2022-08-31T09:26:49.481Z,27.59
2022-08-31T09:27:49.697Z,28.15
2022-08-31T09:28:49.819Z,27.44
2022-08-31T09:29:50.003Z,25.78
2022-08-31T09:30:50.220Z,25.09
2022-08-31T09:31:50.331Z,26.58
2022-08-31T09:32:50.501Z,27.19
2022-08-31T09:33:50.683Z,28.05
2022-08-31T09:34:50.881Z,26.76
2022-08-31T09:35:51.133Z,25.02
2022-08-31T09:36:51.192Z,26.14
2022-08-31T09:37:51.381Z,26.74
2022-08-31T09:38:51.534Z,28.14
2022-08-31T09:39:51.714Z,28.33
2022-08-31T09:40:51.992Z,28.20
2022-08-31T09:41:52.081Z,27.01
2022-08-31T09:42:52.247Z,27.66
2022-08-31T09:43:52.445Z,27.06
2022-08-31T09:44:52.629Z,25.20
2022-08-31T09:45:52.837Z,27.62
2022-08-31T09:46:52.976Z,25.57
2022-08-31T09:47:53.157Z,25.36
2022-08-31T09:48:53.325Z,24.95
2022-08-31T09:49:53.526Z,24.35
2022-08-31T09:50:53.675Z,23.58
2022-08-31T09:51:53.846Z,23.77
2022-08-31T09:52:54.016Z,23.96
2022-08-31T09:53:54.197Z,24.26
2022-08-31T09:54:54.366Z,25.23
2022-08-31T09:55:54.570Z,23.38
2022-08-31T09:56:54.708Z,24.26
2022-08-31T09:57:54.894Z,23.76
2022-08-31T09:58:55.071Z,24.55
2022-08-31T09:59:55.234Z,23.60
2022-08-31T10:00:55.477Z,25.09
2022-08-31T10:01:55.569Z,27.54
2022-08-31T10:02:55.749Z,26.79
2022-08-31T10:03:55.938Z,26.63
2022-08-31T10:04:56.163Z,28.50
2022-08-31T10:05:56.309Z,28.03
2022-08-31T10:06:56.459Z,28.55
2022-08-31T10:07:56.629Z,30.33
2022-08-31T10:08:56.800Z,30.05
2022-08-31T10:09:57.903Z,28.12
2022-08-31T10:10:57.180Z,28.83
2022-08-31T10:11:57.353Z,30.12
2022-08-31T10:12:57.503Z,30.45
2022-08-31T10:13:57.691Z,31.76
2022-08-31T10:14:57.873Z,33.86
2022-08-31T10:15:58.135Z,32.98
2022-08-31T10:16:58.203Z,33.20
2022-08-31T10:17:58.380Z,33.23
2022-08-31T10:18:58.553Z,34.23
2022-08-31T10:19:58.723Z,33.46
2022-08-31T10:20:58.912Z,35.05
2022-08-31T10:21:59.064Z,35.15
2022-08-31T10:22:59.242Z,36.16
2022-08-31T10:23:59.423Z,35.88
2022-08-31T10:24:59.594Z,36.57
2022-08-31T10:25:59.784Z,35.58
2022-08-31T10:26:59.964Z,35.38
2022-08-31T10:28:00.143Z,37.68
2022-08-31T10:29:00.315Z,37.68
2022-08-31T10:30:00.494Z,36.80
2022-08-31T10:31:00.712Z,39.37
2022-08-31T10:32:00.865Z,38.29
2022-08-31T10:33:01.015Z,39.08
2022-08-31T10:34:01.195Z,37.89
2022-08-31T10:35:01.418Z,37.00
2022-08-31T10:36:01.535Z,39.18
2022-08-31T10:37:01.675Z,38.70
2022-08-31T10:38:01.855Z,37.91
2022-08-31T10:39:02.035Z,37.51
2022-08-31T10:40:02.282Z,38.42
2022-08-31T10:41:02.396Z,38.23
2022-08-31T10:42:02.548Z,40.20
2022-08-31T10:43:02.722Z,39.81
2022-08-31T10:44:02.896Z,40.80
2022-08-31T10:45:03.079Z,40.20
2022-08-31T10:46:03.309Z,39.12
2022-08-31T10:47:03.417Z,41.10
2022-08-31T10:48:03.609Z,40.92
2022-08-31T10:49:03.820Z,38.24
2022-08-31T10:50:03.968Z,39.04
2022-08-31T10:51:04.127Z,39.06
2022-08-31T10:52:04.308Z,40.34
2022-08-31T10:53:04.478Z,39.36
2022-08-31T10:54:04.658Z,40.15
2022-08-31T10:55:04.856Z,39.67
2022-08-31T10:56:04.997Z,38.98
2022-08-31T10:57:05.177Z,38.78
2022-08-31T10:58:05.339Z,40.26
2022-08-31T10:59:05.519Z,39.25
2022-08-31T11:00:05.698Z,40.05
2022-08-31T11:01:05.871Z,40.25
2022-08-31T11:02:06.029Z,40.62
2022-08-31T11:03:06.180Z,40.23
2022-08-31T11:04:06.390Z,39.53
2022-08-31T11:05:06.559Z,40.15
2022-08-31T11:06:06.709Z,40.15
2022-08-31T11:07:06.889Z,39.77
2022-08-31T11:08:07.069Z,39.98
2022-08-31T11:09:07.267Z,39.98
2022-08-31T11:10:07.451Z,40.41
2022-08-31T11:11:07.622Z,41.99
2022-08-31T11:12:07.758Z,41.50
2022-08-31T11:13:07.932Z,41.79
2022-08-31T11:14:08.110Z,42.09
2022-08-31T11:15:08.301Z,42.88
2022-08-31T11:16:08.583Z,42.69
2022-08-31T11:17:12.164Z,40.88
2022-08-31T11:18:08.802Z,41.08
2022-08-31T11:19:09.606Z,40.98
2022-08-31T11:20:09.171Z,43.76
2022-08-31T11:21:09.322Z,41.06
2022-08-31T11:22:09.462Z,39.67
2022-08-31T11:23:09.639Z,39.37
2022-08-31T11:24:09.812Z,40.66
2022-08-31T11:25:10.003Z,41.55
2022-08-31T11:26:10.152Z,41.36
2022-08-31T11:27:10.312Z,41.83
2022-08-31T11:28:10.473Z,39.45
2022-08-31T11:29:10.633Z,39.34
2022-08-31T11:30:10.813Z,38.92
2022-08-31T11:31:11.006Z,38.62
2022-08-31T11:32:11.128Z,38.11
2022-08-31T11:33:11.334Z,37.71
2022-08-31T11:34:18.577Z,37.24
2022-08-31T11:35:12.683Z,38.92
2022-08-31T11:36:11.803Z,40.01
2022-08-31T11:37:11.944Z,39.31
2022-08-31T11:38:12.134Z,39.71
2022-08-31T11:39:12.282Z,39.71
2022-08-31T11:40:12.508Z,38.54
2022-08-31T11:41:12.635Z,38.54
2022-08-31T11:42:12.823Z,37.57
2022-08-31T11:43:12.994Z,38.56
2022-08-31T11:44:13.174Z,39.97
2022-08-31T11:45:14.215Z,39.06
2022-08-31T11:46:17.354Z,39.25
2022-08-31T11:47:13.695Z,40.84
2022-08-31T11:48:13.892Z,40.34
2022-08-31T11:49:14.046Z,39.75
2022-08-31T11:50:14.228Z,38.07
2022-08-31T11:51:14.370Z,38.96
2022-08-31T11:52:14.529Z,40.64
2022-08-31T11:53:14.874Z,39.06
2022-08-31T11:54:14.888Z,37.77
2022-08-31T11:55:15.077Z,38.66
2022-08-31T11:56:15.266Z,39.55
2022-08-31T11:57:15.468Z,38.17
2022-08-31T11:58:20.964Z,37.29
2022-08-31T11:59:16.787Z,39.07
2022-08-31T12:00:15.979Z,38.58
2022-08-31T12:01:16.127Z,38.07
2022-08-31T12:02:16.313Z,38.96
2022-08-31T12:03:16.458Z,37.57
2022-08-31T12:04:20.560Z,37.77
2022-08-31T12:05:17.849Z,38.17
2022-08-31T12:06:16.969Z,38.17
2022-08-31T12:07:17.139Z,37.88
2022-08-31T12:08:17.320Z,38.98
2022-08-31T12:09:17.487Z,40.07
2022-08-31T12:10:17.675Z,42.55
2022-08-31T12:11:17.849Z,42.25
2022-08-31T12:12:18.050Z,41.24
2022-08-31T12:13:18.295Z,42.03
2022-08-31T12:14:18.380Z,38.07
2022-08-31T12:15:18.582Z,38.96
2022-08-31T12:16:18.748Z,38.66
2022-08-31T12:17:18.935Z,38.66
2022-08-31T12:18:19.101Z,38.56
2022-08-31T12:19:19.300Z,38.85
2022-08-31T12:20:19.450Z,39.65
2022-08-31T12:21:19.598Z,39.15
2022-08-31T12:22:19.778Z,39.95
2022-08-31T12:23:30.008Z,40.42
2022-08-31T12:24:21.143Z,40.42
2022-08-31T12:25:20.365Z,39.63
2022-08-31T12:26:20.491Z,39.14
2022-08-31T12:27:20.661Z,38.64
2022-08-31T12:28:20.841Z,39.73
2022-08-31T12:29:22.020Z,40.03
2022-08-31T12:30:21.229Z,39.34
2022-08-31T12:31:21.513Z,40.01
2022-08-31T12:32:21.564Z,37.53
2022-08-31T12:33:21.741Z,37.83
2022-08-31T12:34:23.756Z,39.61
2022-08-31T12:35:22.141Z,40.29
2022-08-31T12:36:22.292Z,39.50
2022-08-31T12:37:22.472Z,39.29
2022-08-31T12:38:22.662Z,39.89
2022-08-31T12:39:22.834Z,40.29
2022-08-31T12:40:23.072Z,39.20
2022-08-31T12:41:25.385Z,38.98
2022-08-31T12:42:23.382Z,39.77
2022-08-31T12:43:23.554Z,39.37
2022-08-31T12:44:23.735Z,38.09
2022-08-31T12:45:23.924Z,38.39
2022-08-31T12:46:24.152Z,37.91
2022-08-31T12:47:24.450Z,39.59
2022-08-31T12:48:24.415Z,38.60
2022-08-31T12:49:24.594Z,37.83
2022-08-31T12:50:24.744Z,38.62
2022-08-31T12:51:24.915Z,39.31
2022-08-31T12:52:25.111Z,38.62
2022-08-31T12:53:25.305Z,38.72
2022-08-31T12:54:25.473Z,38.03